Rhinelander, Wisconsin
Current Conditions -  °F | °C
As of 1:53 AM on Tuesday 27 Jan 2015 (Local Time) from KRHI Reporting Station
Overcast Overcast  
Wind Chill: 20°   Ceiling: 700
Heat Index: 20°   Visibility: 9mi
Dew Point: 17°   Wind: 0mph
Humidity: 89%   Direction: NA
Pressure: 29.96"   Gusts: NA
Location:  45.64°N, 89.41°W
Report Text: KRHI 270753Z AUTO 00000KT 9SM OVC007 M07/M08 A2996 RMK AO2 SLP175 T10671083
Loading
Personal Weather Stations






























Interactive Weather Map New forecast layout! Learn more

10-Day Weather Forecast

Advertisements
Track Severe Weather on mobile